Time;durP1;ratioP1;P1;durP2;ratioP2;P2;SDS_P1;SDS_P2;PMS_P1;PMS_P2;Temp;Humidity;BMP_temperature;BMP_pressure;BME280_temperature;BME280_humidity;BME280_pressure;Samples;Min_cycle;Max_cycle;Signal;HPM_P1;HPM_P2
2023/11/24 12:34:59;;;;;;;11.25;9.10;;;;;;;;;;5656268;23;20301;-85
2023/11/24 12:37:26;;;;;;;11.52;9.43;;;;;;;;;;4994938;28;20031;-84
2023/11/24 12:39:52;;;;;;;12.60;8.52;;;;;;;;;;4995570;28;20023;-85
2023/11/24 12:42:17;;;;;;;11.65;8.57;;;;;;;;;;4993531;28;20180;-84
2023/11/24 12:44:43;;;;;;;12.65;9.88;;;;;;;;;;4995136;28;20042;-85
2023/11/24 12:47:16;;;;;;;13.20;9.13;;;;;;;;;;4995056;28;20030;-85
2023/11/24 12:50:00;;;;;;;11.65;8.27;;;;;;;;;;4993558;28;20551;-85
2023/11/24 17:07:37;;;;;;;43.53;27.55;;;;;;;;;;4962099;28;20828;-86
2023/11/24 17:10:04;;;;;;;26.70;16.92;;;;;;;;;;4932952;29;20048;-85
2023/11/24 17:12:29;;;;;;;20.83;14.07;;;;;;;;;;4942877;29;20024;-86
2023/11/24 17:14:55;;;;;;;28.23;18.77;;;;;;;;;;4949741;28;20039;-85
2023/11/24 17:17:21;;;;;;;42.78;28.33;;;;;;;;;;4964079;28;20037;-84
2023/11/24 17:19:46;;;;;;;92.03;54.97;;;;;;;;;;4955338;28;20531;-84
2023/11/24 17:22:13;;;;;;;40.72;24.35;;;;;;;;;;4973163;28;20058;-85
2023/11/24 17:24:38;;;;;;;31.02;20.25;;;;;;;;;;4972443;28;20477;-84
2023/11/24 17:27:04;;;;;;;22.10;14.10;;;;;;;;;;4972675;28;20114;-83
2023/11/24 17:29:30;;;;;;;21.05;13.55;;;;;;;;;;4972451;28;20062;-84
2023/11/24 17:31:56;;;;;;;17.02;11.20;;;;;;;;;;4969666;28;20065;-84
2023/11/24 17:34:21;;;;;;;16.25;11.40;;;;;;;;;;4936032;28;20031;-84
2023/11/24 17:36:48;;;;;;;16.02;11.70;;;;;;;;;;4953490;28;20034;-83
2023/11/24 17:39:14;;;;;;;19.58;13.57;;;;;;;;;;4953895;28;20122;-84
2023/11/24 17:41:40;;;;;;;16.83;10.98;;;;;;;;;;4953492;28;20433;-84
2023/11/24 17:44:11;;;;;;;17.30;10.77;;;;;;;;;;4951763;28;20031;-83
2023/11/24 17:46:40;;;;;;;18.00;10.95;;;;;;;;;;4953100;28;20390;-84
2023/11/24 17:49:06;;;;;;;21.00;12.45;;;;;;;;;;4958816;28;20046;-83
2023/11/24 17:51:32;;;;;;;19.40;11.88;;;;;;;;;;4972470;28;20031;-83
2023/11/24 17:54:01;;;;;;;15.52;11.52;;;;;;;;;;4970242;28;21434;-82
2023/11/24 17:56:28;;;;;;;18.15;12.23;;;;;;;;;;4972937;28;20034;-85
2023/11/24 17:58:56;;;;;;;17.38;11.85;;;;;;;;;;4972244;28;20030;-85
2023/11/24 18:01:24;;;;;;;18.83;11.85;;;;;;;;;;4954230;28;20015;-84
2023/11/24 18:03:50;;;;;;;18.02;11.52;;;;;;;;;;4953367;28;20122;-85
2023/11/24 18:06:16;;;;;;;17.92;11.48;;;;;;;;;;4950893;28;20030;-84
2023/11/24 18:08:41;;;;;;;15.82;11.35;;;;;;;;;;4944737;28;20078;-86
2023/11/24 18:11:07;;;;;;;30.67;20.15;;;;;;;;;;4967603;28;20852;-85
2023/11/24 18:13:32;;;;;;;19.80;12.35;;;;;;;;;;4965230;28;20027;-84
2023/11/24 18:15:58;;;;;;;17.25;11.68;;;;;;;;;;4968097;28;20039;-84
2023/11/24 18:18:24;;;;;;;15.88;11.18;;;;;;;;;;4952742;28;20035;-85
2023/11/24 18:20:49;;;;;;;24.95;18.77;;;;;;;;;;4953148;28;20035;-85
2023/11/24 18:23:14;;;;;;;28.67;21.58;;;;;;;;;;4954360;28;20110;-85
2023/11/24 18:25:41;;;;;;;28.92;19.08;;;;;;;;;;4970392;28;20035;-85
2023/11/24 18:28:11;;;;;;;20.50;14.18;;;;;;;;;;4956507;28;20020;-85
2023/11/24 18:30:39;;;;;;;;;;;;;;;;;;4973608;28;20433;-85
2023/11/24 18:33:05;;;;;;;41.95;22.85;;;;;;;;;;4956556;28;19922;-85
2023/11/24 18:35:34;;;;;;;33.72;20.35;;;;;;;;;;4972947;28;20062;-85
2023/11/24 18:37:59;;;;;;;33.08;21.23;;;;;;;;;;4956077;28;20094;-85
2023/11/24 18:40:25;;;;;;;40.95;23.02;;;;;;;;;;4955529;28;20190;-85
2023/11/24 18:42:50;;;;;;;39.63;22.80;;;;;;;;;;4956486;28;20023;-85
2023/11/24 18:45:19;;;;;;;35.40;21.40;;;;;;;;;;4974590;28;20043;-86
2023/11/24 18:47:44;;;;;;;34.03;23.42;;;;;;;;;;4972224;28;20106;-86
2023/11/24 18:50:10;;;;;;;30.65;20.15;;;;;;;;;;4975870;28;20457;-85
2023/11/24 18:52:36;;;;;;;32.90;21.00;;;;;;;;;;4960662;28;20027;-85
2023/11/24 18:55:04;;;;;;;30.17;19.67;;;;;;;;;;4956204;28;20035;-86
2023/11/24 18:57:30;;;;;;;28.85;18.48;;;;;;;;;;4976994;28;20038;-86
2023/11/24 18:59:55;;;;;;;22.70;15.70;;;;;;;;;;4980037;28;20019;-85
2023/11/24 19:02:22;;;;;;;24.75;15.52;;;;;;;;;;4958149;28;20664;-85
2023/11/24 19:04:49;;;;;;;21.05;14.70;;;;;;;;;;4958404;28;20030;-84
2023/11/24 19:07:16;;;;;;;22.08;14.63;;;;;;;;;;4956859;28;20027;-86
2023/11/24 19:09:43;;;;;;;22.48;15.73;;;;;;;;;;4958223;29;20023;-87
2023/11/24 19:12:09;;;;;;;33.28;19.80;;;;;;;;;;4957960;29;20023;-86
2023/11/24 19:14:34;;;;;;;29.02;18.38;;;;;;;;;;4956633;29;20557;-86
2023/11/24 19:17:00;;;;;;;24.15;15.73;;;;;;;;;;4957783;29;20037;-86
2023/11/24 19:19:25;;;;;;;24.35;16.63;;;;;;;;;;4958185;29;20031;-87
2023/11/24 19:21:51;;;;;;;24.13;15.93;;;;;;;;;;4941196;29;20027;-83
2023/11/24 19:24:16;;;;;;;22.40;15.73;;;;;;;;;;4957923;29;20031;-86
2023/11/24 19:26:42;;;;;;;29.17;18.00;;;;;;;;;;4958080;29;20027;-85
2023/11/24 19:29:07;;;;;;;26.73;17.65;;;;;;;;;;4941169;29;20085;-85
2023/11/24 19:31:33;;;;;;;27.60;18.25;;;;;;;;;;4957966;29;20027;-84
2023/11/24 19:33:58;;;;;;;26.35;18.63;;;;;;;;;;4957116;28;20032;-85
2023/11/24 19:36:29;;;;;;;24.70;16.98;;;;;;;;;;4957118;29;20031;-85
2023/11/24 19:38:54;;;;;;;28.45;18.50;;;;;;;;;;4957598;29;20378;-84
2023/11/24 19:41:20;;;;;;;30.83;20.58;;;;;;;;;;4957338;29;20035;-84
2023/11/24 19:43:48;;;;;;;27.55;18.27;;;;;;;;;;4956113;29;20027;-84
2023/11/24 19:46:15;;;;;;;28.17;18.20;;;;;;;;;;4956147;29;20039;-85
2023/11/24 19:48:40;;;;;;;25.90;18.33;;;;;;;;;;4957317;29;20031;-84
2023/11/24 19:51:06;;;;;;;28.20;17.33;;;;;;;;;;4957538;29;20038;-86
2023/11/24 19:53:31;;;;;;;23.95;17.08;;;;;;;;;;4957569;29;20059;-84
2023/11/24 19:55:57;;;;;;;30.58;18.50;;;;;;;;;;4958157;28;20031;-85
2023/11/24 19:58:23;;;;;;;28.70;17.40;;;;;;;;;;4977014;28;20120;-87
2023/11/24 20:00:49;;;;;;;21.70;15.38;;;;;;;;;;4976777;28;20474;-84
2023/11/24 20:03:14;;;;;;;25.25;15.85;;;;;;;;;;4976655;28;20031;-85
2023/11/24 20:05:40;;;;;;;19.17;14.30;;;;;;;;;;4976213;28;20121;-86
2023/11/24 20:08:06;;;;;;;21.80;14.55;;;;;;;;;;4976120;28;20047;-85
2023/11/24 20:10:31;;;;;;;20.85;13.57;;;;;;;;;;4959138;28;20034;-86
2023/11/24 20:12:57;;;;;;;22.80;14.90;;;;;;;;;;4958888;28;20113;-85
2023/11/24 20:15:24;;;;;;;29.70;16.67;;;;;;;;;;4976548;28;20031;-86
2023/11/24 20:17:49;;;;;;;24.25;15.90;;;;;;;;;;4976438;28;20454;-85
2023/11/24 20:20:16;;;;;;;28.27;17.55;;;;;;;;;;4959036;28;20131;-85
2023/11/24 20:22:41;;;;;;;26.10;17.10;;;;;;;;;;4958941;28;20027;-85
2023/11/24 20:25:11;;;;;;;28.80;18.95;;;;;;;;;;4975984;28;20102;-85
2023/11/24 20:27:36;;;;;;;27.83;18.83;;;;;;;;;;4976433;28;20147;-86
2023/11/24 20:30:06;;;;;;;28.00;18.48;;;;;;;;;;4958685;28;20058;-85
2023/11/24 20:32:32;;;;;;;32.85;19.25;;;;;;;;;;4958938;28;20389;-86
2023/11/24 20:34:57;;;;;;;26.70;18.65;;;;;;;;;;4958691;28;20122;-87
2023/11/24 20:37:25;;;;;;;27.25;17.77;;;;;;;;;;4958837;28;20027;-87
2023/11/24 20:39:51;;;;;;;35.97;20.13;;;;;;;;;;4958819;28;20078;-86
2023/11/24 20:42:16;;;;;;;34.22;19.55;;;;;;;;;;4958315;28;20109;-87
2023/11/24 20:44:42;;;;;;;33.78;20.50;;;;;;;;;;4975550;28;20107;-87
2023/11/24 20:47:08;;;;;;;34.60;21.10;;;;;;;;;;4975944;28;20027;-87
2023/11/24 20:49:34;;;;;;;32.92;18.88;;;;;;;;;;4974446;28;20023;-86
2023/11/24 20:51:59;;;;;;;25.23;16.67;;;;;;;;;;4958412;28;20031;-86
2023/11/24 20:54:25;;;;;;;25.23;16.98;;;;;;;;;;4958341;28;20023;-85
2023/11/24 20:56:50;;;;;;;27.30;17.13;;;;;;;;;;4975829;28;20466;-85
2023/11/24 20:59:16;;;;;;;101.40;47.53;;;;;;;;;;4975675;28;20473;-85
2023/11/24 21:01:41;;;;;;;71.40;42.28;;;;;;;;;;4958139;28;20031;-85
2023/11/24 21:04:08;;;;;;;40.15;25.08;;;;;;;;;;4958254;28;20033;-85
2023/11/24 21:06:33;;;;;;;46.05;24.83;;;;;;;;;;4958142;28;20031;-86
2023/11/24 21:09:00;;;;;;;36.17;21.70;;;;;;;;;;4969433;28;20513;-86
2023/11/24 21:11:27;;;;;;;40.70;20.65;;;;;;;;;;4990256;28;20023;-86
2023/11/24 21:13:55;;;;;;;31.92;18.00;;;;;;;;;;4990161;28;20022;-86
2023/11/24 21:16:21;;;;;;;52.88;26.85;;;;;;;;;;4990347;28;20525;-86
2023/11/24 21:18:47;;;;;;;38.70;21.55;;;;;;;;;;4975598;28;20053;-86
2023/11/24 21:21:14;;;;;;;32.55;19.13;;;;;;;;;;4975275;28;20030;-85
2023/11/24 21:23:40;;;;;;;41.60;27.73;;;;;;;;;;4975315;28;20097;-86
2023/11/24 21:26:06;;;;;;;45.40;27.35;;;;;;;;;;4989803;28;20125;-85
2023/11/24 21:28:32;;;;;;;45.92;24.60;;;;;;;;;;4974919;28;20027;-85
2023/11/24 21:30:58;;;;;;;48.45;31.67;;;;;;;;;;4975244;28;20034;-86
2023/11/24 21:33:24;;;;;;;32.08;20.95;;;;;;;;;;4989972;28;20027;-85
2023/11/24 21:35:50;;;;;;;29.60;20.65;;;;;;;;;;4974985;28;20058;-85
2023/11/24 21:38:18;;;;;;;31.55;19.98;;;;;;;;;;4974834;28;20027;-85
2023/11/24 21:40:44;;;;;;;25.42;18.13;;;;;;;;;;4974887;28;20039;-85
2023/11/24 21:43:10;;;;;;;22.65;17.35;;;;;;;;;;4974838;28;20027;-85
2023/11/24 21:45:37;;;;;;;26.08;16.90;;;;;;;;;;4974679;28;20359;-85
2023/11/24 21:48:03;;;;;;;27.52;16.73;;;;;;;;;;4974722;28;20030;-85
2023/11/24 21:50:29;;;;;;;26.30;16.17;;;;;;;;;;4974968;28;20023;-85
2023/11/24 21:52:54;;;;;;;20.52;11.75;;;;;;;;;;4974982;28;20031;-85
2023/11/24 21:55:20;;;;;;;20.65;13.07;;;;;;;;;;4974884;28;20166;-85
2023/11/24 21:57:46;;;;;;;12.57;9.35;;;;;;;;;;4975645;28;20070;-85
2023/11/24 22:00:16;;;;;;;12.60;8.93;;;;;;;;;;4978842;28;20104;-85
2023/11/24 22:02:45;;;;;;;15.35;8.63;;;;;;;;;;4993535;28;20609;-85
2023/11/24 22:05:10;;;;;;;11.63;7.50;;;;;;;;;;4993445;28;20517;-85
2023/11/24 22:07:36;;;;;;;22.27;13.98;;;;;;;;;;4978475;28;20035;-86
2023/11/24 22:10:05;;;;;;;21.02;14.07;;;;;;;;;;4961392;28;20529;-85
2023/11/24 22:12:35;;;;;;;26.60;15.07;;;;;;;;;;4961186;28;20033;-85
2023/11/24 22:15:03;;;;;;;26.27;17.23;;;;;;;;;;4960816;28;20037;-85
2023/11/24 22:17:29;;;;;;;28.00;16.95;;;;;;;;;;4961072;28;20085;-85
2023/11/24 22:19:59;;;;;;;30.48;17.58;;;;;;;;;;4978367;28;20031;-85
2023/11/24 22:22:25;;;;;;;;;;;;;;;;;;4961359;28;20030;-85
2023/11/24 22:24:51;;;;;;;29.58;16.48;;;;;;;;;;4978244;28;19914;-85
2023/11/24 22:27:17;;;;;;;23.60;16.05;;;;;;;;;;4978280;28;20038;-85
2023/11/24 22:29:43;;;;;;;30.77;17.10;;;;;;;;;;4976949;28;20031;-86
2023/11/24 22:32:09;;;;;;;24.23;15.73;;;;;;;;;;4976881;28;20482;-85
2023/11/24 22:34:35;;;;;;;24.92;15.70;;;;;;;;;;4978222;28;20165;-85
2023/11/24 22:37:00;;;;;;;22.58;14.82;;;;;;;;;;4978500;28;20130;-84
2023/11/24 22:39:26;;;;;;;19.70;13.10;;;;;;;;;;4978056;28;20082;-85
2023/11/24 22:41:51;;;;;;;12.13;7.65;;;;;;;;;;4978349;28;20105;-85
2023/11/24 22:44:19;;;;;;;10.25;6.65;;;;;;;;;;4977294;28;20054;-86
2023/11/24 22:46:44;;;;;;;9.93;5.82;;;;;;;;;;4977678;28;20370;-86
2023/11/24 22:49:10;;;;;;;17.80;10.18;;;;;;;;;;4977814;28;20026;-86
2023/11/24 22:51:36;;;;;;;15.75;9.85;;;;;;;;;;4977841;28;20081;-86
2023/11/24 22:54:01;;;;;;;17.20;11.88;;;;;;;;;;4977710;28;20478;-85
2023/11/24 22:56:27;;;;;;;18.00;11.13;;;;;;;;;;4960416;28;20034;-86
2023/11/24 22:58:58;;;;;;;18.92;11.82;;;;;;;;;;4960182;28;20544;-86
2023/11/24 23:01:25;;;;;;;17.17;10.68;;;;;;;;;;4977567;28;20382;-86
2023/11/24 23:03:53;;;;;;;15.20;9.95;;;;;;;;;;4977394;28;20051;-85
2023/11/24 23:06:19;;;;;;;14.73;10.55;;;;;;;;;;4960143;28;20049;-85
2023/11/24 23:08:45;;;;;;;19.25;12.40;;;;;;;;;;4969505;28;20521;-85
2023/11/24 23:11:15;;;;;;;15.20;11.77;;;;;;;;;;4977598;28;20026;-86
2023/11/24 23:13:42;;;;;;;16.58;9.85;;;;;;;;;;4977560;28;20047;-86
2023/11/24 23:16:12;;;;;;;15.63;10.10;;;;;;;;;;4977334;28;20481;-86
2023/11/24 23:18:41;;;;;;;16.55;10.27;;;;;;;;;;4977255;28;20154;-86
2023/11/24 23:21:11;;;;;;;18.77;10.23;;;;;;;;;;4977381;28;20081;-86
2023/11/24 23:23:38;;;;;;;14.98;8.88;;;;;;;;;;4992077;28;20346;-85
2023/11/24 23:26:04;;;;;;;11.25;7.40;;;;;;;;;;4977255;28;20031;-85
2023/11/24 23:28:33;;;;;;;9.73;7.38;;;;;;;;;;4992192;28;20118;-85
